Terminal Aerodrome Forecast
Issued by NWS Shreveport, LA

Home | Current Version | Previous Version | Text Only | Print | Product List | Glossary On
Versions: 1 2 3 4 5 6 7 8 9 10 11 12 13 14
000
FTUS44 KSHV 261637 AAA
TAFTYR
TAF AMD
KTYR 261637Z 2617/2712 16015G22KT P6SM BKN150
     FM262300 15008KT P6SM VCTS SCT020 BKN040CB
     FM270400 16011KT 3SM TSRA BR OVC030CB
     FM270900 09005KT 3SM TSRA BR OVC030CB=

USA.gov is the U.S. government's official web portal to all federal, state and local government web resources and services.